sensor_id;sensor_type;location;lat;lon;timestamp;temperature;humidity
324;DHT22;149;51.094;17.002;2024-02-23T00:01:11;9.20;99.90
324;DHT22;149;51.094;17.002;2024-02-23T00:03:39;9.20;99.90
324;DHT22;149;51.094;17.002;2024-02-23T00:06:06;9.10;99.90
324;DHT22;149;51.094;17.002;2024-02-23T00:08:33;9.10;99.90
324;DHT22;149;51.094;17.002;2024-02-23T00:11:00;9.30;99.90
324;DHT22;149;51.094;17.002;2024-02-23T00:13:27;9.20;99.90
324;DHT22;149;51.094;17.002;2024-02-23T00:15:54;9.30;99.90
324;DHT22;149;51.094;17.002;2024-02-23T00:18:21;9.30;99.90
324;DHT22;149;51.094;17.002;2024-02-23T00:20:48;9.40;99.90
324;DHT22;149;51.094;17.002;2024-02-23T00:23:15;9.40;99.90
324;DHT22;149;51.094;17.002;2024-02-23T00:25:42;9.60;99.90
324;DHT22;149;51.094;17.002;2024-02-23T00:28:09;9.60;99.90
324;DHT22;149;51.094;17.002;2024-02-23T00:30:36;9.60;99.90
324;DHT22;149;51.094;17.002;2024-02-23T00:33:03;9.50;99.90
324;DHT22;149;51.094;17.002;2024-02-23T00:35:30;9.50;99.90
324;DHT22;149;51.094;17.002;2024-02-23T00:37:57;9.50;99.90
324;DHT22;149;51.094;17.002;2024-02-23T00:40:25;9.50;99.90
324;DHT22;149;51.094;17.002;2024-02-23T00:42:52;9.40;99.90
324;DHT22;149;51.094;17.002;2024-02-23T00:45:19;9.60;99.90
324;DHT22;149;51.094;17.002;2024-02-23T00:47:46;9.60;99.90
324;DHT22;149;51.094;17.002;2024-02-23T00:50:14;9.60;99.90
324;DHT22;149;51.094;17.002;2024-02-23T00:52:41;9.50;99.90
324;DHT22;149;51.094;17.002;2024-02-23T00:55:08;9.60;99.90
324;DHT22;149;51.094;17.002;2024-02-23T00:57:36;9.60;99.90
324;DHT22;149;51.094;17.002;2024-02-23T01:00:04;9.60;99.90
324;DHT22;149;51.094;17.002;2024-02-23T01:02:36;9.60;99.90
324;DHT22;149;51.094;17.002;2024-02-23T01:05:04;9.70;99.90
324;DHT22;149;51.094;17.002;2024-02-23T01:07:31;9.70;99.90
324;DHT22;149;51.094;17.002;2024-02-23T01:09:59;9.70;99.90
324;DHT22;149;51.094;17.002;2024-02-23T01:12:26;9.60;99.90
324;DHT22;149;51.094;17.002;2024-02-23T01:14:53;9.50;99.90
324;DHT22;149;51.094;17.002;2024-02-23T01:17:21;9.60;99.90
324;DHT22;149;51.094;17.002;2024-02-23T01:19:49;9.70;99.90
324;DHT22;149;51.094;17.002;2024-02-23T01:22:17;9.70;99.90
324;DHT22;149;51.094;17.002;2024-02-23T01:24:44;9.70;99.90
324;DHT22;149;51.094;17.002;2024-02-23T01:27:11;9.70;99.90
324;DHT22;149;51.094;17.002;2024-02-23T01:29:38;9.60;99.90
324;DHT22;149;51.094;17.002;2024-02-23T01:32:06;9.70;99.90
324;DHT22;149;51.094;17.002;2024-02-23T01:34:35;9.60;99.90
324;DHT22;149;51.094;17.002;2024-02-23T01:37:02;9.60;99.90
324;DHT22;149;51.094;17.002;2024-02-23T01:39:30;9.80;99.90
324;DHT22;149;51.094;17.002;2024-02-23T01:41:57;10.00;99.90
324;DHT22;149;51.094;17.002;2024-02-23T01:44:24;9.80;99.90
324;DHT22;149;51.094;17.002;2024-02-23T01:46:51;9.90;99.90
324;DHT22;149;51.094;17.002;2024-02-23T01:49:20;9.70;99.90
324;DHT22;149;51.094;17.002;2024-02-23T01:51:49;9.60;99.90
324;DHT22;149;51.094;17.002;2024-02-23T01:54:16;9.80;99.90
324;DHT22;149;51.094;17.002;2024-02-23T01:56:43;9.80;99.90
324;DHT22;149;51.094;17.002;2024-02-23T01:59:12;9.60;99.90
324;DHT22;149;51.094;17.002;2024-02-23T02:01:43;9.60;99.90
324;DHT22;149;51.094;17.002;2024-02-23T02:04:10;9.60;99.90
324;DHT22;149;51.094;17.002;2024-02-23T02:06:38;9.50;99.90
324;DHT22;149;51.094;17.002;2024-02-23T02:09:05;9.60;99.90
324;DHT22;149;51.094;17.002;2024-02-23T02:11:32;9.70;99.90
324;DHT22;149;51.094;17.002;2024-02-23T02:13:59;9.80;99.90
324;DHT22;149;51.094;17.002;2024-02-23T02:16:26;9.50;99.90
324;DHT22;149;51.094;17.002;2024-02-23T02:18:54;9.50;99.90
324;DHT22;149;51.094;17.002;2024-02-23T02:21:21;9.30;99.90
324;DHT22;149;51.094;17.002;2024-02-23T02:23:52;9.40;99.90
324;DHT22;149;51.094;17.002;2024-02-23T02:26:19;9.40;99.90
324;DHT22;149;51.094;17.002;2024-02-23T02:28:46;9.40;99.90
324;DHT22;149;51.094;17.002;2024-02-23T02:31:14;9.60;99.90
324;DHT22;149;51.094;17.002;2024-02-23T02:33:41;9.50;99.90
324;DHT22;149;51.094;17.002;2024-02-23T02:36:08;9.40;99.90
324;DHT22;149;51.094;17.002;2024-02-23T02:38:35;9.40;99.90
324;DHT22;149;51.094;17.002;2024-02-23T02:41:02;9.40;99.90
324;DHT22;149;51.094;17.002;2024-02-23T02:43:31;9.30;99.90
324;DHT22;149;51.094;17.002;2024-02-23T02:45:58;9.30;99.90
324;DHT22;149;51.094;17.002;2024-02-23T02:48:25;9.30;99.90
324;DHT22;149;51.094;17.002;2024-02-23T02:50:52;9.40;99.90
324;DHT22;149;51.094;17.002;2024-02-23T02:53:20;9.40;99.90
324;DHT22;149;51.094;17.002;2024-02-23T02:55:47;9.40;99.90
324;DHT22;149;51.094;17.002;2024-02-23T02:58:15;9.40;99.90
324;DHT22;149;51.094;17.002;2024-02-23T03:00:42;9.40;99.90
324;DHT22;149;51.094;17.002;2024-02-23T03:03:09;9.50;99.90
324;DHT22;149;51.094;17.002;2024-02-23T03:05:37;9.40;99.90
324;DHT22;149;51.094;17.002;2024-02-23T03:08:04;9.30;99.90
324;DHT22;149;51.094;17.002;2024-02-23T03:10:31;9.30;99.90
324;DHT22;149;51.094;17.002;2024-02-23T03:12:58;9.50;99.90
324;DHT22;149;51.094;17.002;2024-02-23T03:15:25;9.40;99.90
324;DHT22;149;51.094;17.002;2024-02-23T03:17:52;9.40;99.90
324;DHT22;149;51.094;17.002;2024-02-23T03:20:21;9.40;99.90
324;DHT22;149;51.094;17.002;2024-02-23T03:22:48;9.40;99.90
324;DHT22;149;51.094;17.002;2024-02-23T03:25:15;9.40;99.90
324;DHT22;149;51.094;17.002;2024-02-23T03:27:42;9.40;99.90
324;DHT22;149;51.094;17.002;2024-02-23T03:30:10;9.40;99.90
324;DHT22;149;51.094;17.002;2024-02-23T03:32:37;9.20;99.90
324;DHT22;149;51.094;17.002;2024-02-23T03:35:07;9.20;99.90
324;DHT22;149;51.094;17.002;2024-02-23T03:37:36;9.20;99.90
324;DHT22;149;51.094;17.002;2024-02-23T03:40:09;9.20;99.90
324;DHT22;149;51.094;17.002;2024-02-23T03:42:37;9.20;99.90
324;DHT22;149;51.094;17.002;2024-02-23T03:45:05;9.10;99.90
324;DHT22;149;51.094;17.002;2024-02-23T03:47:32;9.10;99.90
324;DHT22;149;51.094;17.002;2024-02-23T03:49:59;9.10;99.90
324;DHT22;149;51.094;17.002;2024-02-23T03:52:26;9.00;99.90
324;DHT22;149;51.094;17.002;2024-02-23T03:54:53;8.90;99.90
324;DHT22;149;51.094;17.002;2024-02-23T03:57:21;8.80;99.90
324;DHT22;149;51.094;17.002;2024-02-23T03:59:52;9.00;99.90
324;DHT22;149;51.094;17.002;2024-02-23T04:02:19;8.80;99.90
324;DHT22;149;51.094;17.002;2024-02-23T04:04:48;8.90;99.90
324;DHT22;149;51.094;17.002;2024-02-23T04:07:16;8.90;99.90
324;DHT22;149;51.094;17.002;2024-02-23T04:09:43;9.00;99.90
324;DHT22;149;51.094;17.002;2024-02-23T04:12:10;9.00;99.90
324;DHT22;149;51.094;17.002;2024-02-23T04:14:37;9.00;99.90
324;DHT22;149;51.094;17.002;2024-02-23T04:17:04;9.00;99.90
324;DHT22;149;51.094;17.002;2024-02-23T04:19:31;9.10;99.90
324;DHT22;149;51.094;17.002;2024-02-23T04:21:58;9.10;99.90
324;DHT22;149;51.094;17.002;2024-02-23T04:24:25;9.40;99.90
324;DHT22;149;51.094;17.002;2024-02-23T04:26:53;9.40;99.90
324;DHT22;149;51.094;17.002;2024-02-23T04:29:20;9.30;99.90
324;DHT22;149;51.094;17.002;2024-02-23T04:31:47;9.30;99.90
324;DHT22;149;51.094;17.002;2024-02-23T04:34:15;9.20;99.90
324;DHT22;149;51.094;17.002;2024-02-23T04:36:42;9.30;99.90
324;DHT22;149;51.094;17.002;2024-02-23T04:39:10;9.10;99.90
324;DHT22;149;51.094;17.002;2024-02-23T04:41:37;9.30;99.90
324;DHT22;149;51.094;17.002;2024-02-23T04:44:04;9.20;99.90
324;DHT22;149;51.094;17.002;2024-02-23T04:46:31;9.20;99.90
324;DHT22;149;51.094;17.002;2024-02-23T04:48:58;9.20;99.90
324;DHT22;149;51.094;17.002;2024-02-23T04:51:25;9.10;99.90
324;DHT22;149;51.094;17.002;2024-02-23T04:53:52;9.10;99.90
324;DHT22;149;51.094;17.002;2024-02-23T04:56:19;9.20;99.90
324;DHT22;149;51.094;17.002;2024-02-23T04:58:50;9.20;99.90
324;DHT22;149;51.094;17.002;2024-02-23T05:01:18;9.30;99.90
324;DHT22;149;51.094;17.002;2024-02-23T05:03:45;9.30;99.90
324;DHT22;149;51.094;17.002;2024-02-23T05:06:12;9.30;99.90
324;DHT22;149;51.094;17.002;2024-02-23T05:08:40;9.20;99.90
324;DHT22;149;51.094;17.002;2024-02-23T05:11:08;9.20;99.90
324;DHT22;149;51.094;17.002;2024-02-23T05:13:35;9.20;99.90
324;DHT22;149;51.094;17.002;2024-02-23T05:16:06;9.20;99.90
324;DHT22;149;51.094;17.002;2024-02-23T05:18:35;9.20;99.90
324;DHT22;149;51.094;17.002;2024-02-23T05:21:03;9.30;99.90
324;DHT22;149;51.094;17.002;2024-02-23T05:23:30;9.20;99.90
324;DHT22;149;51.094;17.002;2024-02-23T05:25:57;9.20;99.90
324;DHT22;149;51.094;17.002;2024-02-23T05:28:24;9.20;99.90
324;DHT22;149;51.094;17.002;2024-02-23T05:30:52;9.20;99.90
324;DHT22;149;51.094;17.002;2024-02-23T05:33:19;9.20;99.90
324;DHT22;149;51.094;17.002;2024-02-23T05:35:48;9.10;99.90
324;DHT22;149;51.094;17.002;2024-02-23T05:38:18;9.10;99.90
324;DHT22;149;51.094;17.002;2024-02-23T05:40:46;9.20;99.90
324;DHT22;149;51.094;17.002;2024-02-23T05:43:14;9.10;99.90
324;DHT22;149;51.094;17.002;2024-02-23T05:45:41;9.10;99.90
324;DHT22;149;51.094;17.002;2024-02-23T05:48:08;9.10;99.90
324;DHT22;149;51.094;17.002;2024-02-23T05:50:35;9.20;99.90
324;DHT22;149;51.094;17.002;2024-02-23T05:53:02;9.20;99.90
324;DHT22;149;51.094;17.002;2024-02-23T05:55:31;9.20;99.90
324;DHT22;149;51.094;17.002;2024-02-23T05:57:59;9.20;99.90
324;DHT22;149;51.094;17.002;2024-02-23T06:00:26;9.30;99.90
324;DHT22;149;51.094;17.002;2024-02-23T06:02:53;9.30;99.90
324;DHT22;149;51.094;17.002;2024-02-23T06:05:20;9.20;99.90
324;DHT22;149;51.094;17.002;2024-02-23T06:07:47;9.20;99.90
324;DHT22;149;51.094;17.002;2024-02-23T06:10:14;9.10;99.90
324;DHT22;149;51.094;17.002;2024-02-23T06:12:41;9.20;99.90
324;DHT22;149;51.094;17.002;2024-02-23T06:15:08;9.20;99.90
324;DHT22;149;51.094;17.002;2024-02-23T06:17:35;9.20;99.90
324;DHT22;149;51.094;17.002;2024-02-23T06:20:03;9.30;99.90
324;DHT22;149;51.094;17.002;2024-02-23T06:22:33;9.40;99.90
324;DHT22;149;51.094;17.002;2024-02-23T06:25:01;9.40;99.90
324;DHT22;149;51.094;17.002;2024-02-23T06:27:29;9.60;99.90
324;DHT22;149;51.094;17.002;2024-02-23T06:29:56;9.60;99.90
324;DHT22;149;51.094;17.002;2024-02-23T06:32:23;9.50;99.90
324;DHT22;149;51.094;17.002;2024-02-23T06:34:51;9.60;99.90
324;DHT22;149;51.094;17.002;2024-02-23T06:37:18;9.90;99.90
324;DHT22;149;51.094;17.002;2024-02-23T06:39:45;9.50;99.90
324;DHT22;149;51.094;17.002;2024-02-23T06:42:17;9.60;99.90
324;DHT22;149;51.094;17.002;2024-02-23T06:44:43;9.60;99.90
324;DHT22;149;51.094;17.002;2024-02-23T06:47:10;9.70;99.90
324;DHT22;149;51.094;17.002;2024-02-23T06:49:42;9.70;99.90
324;DHT22;149;51.094;17.002;2024-02-23T06:52:10;9.70;99.90
324;DHT22;149;51.094;17.002;2024-02-23T06:54:40;9.70;99.90
324;DHT22;149;51.094;17.002;2024-02-23T06:57:07;9.70;99.90
324;DHT22;149;51.094;17.002;2024-02-23T06:59:34;9.60;99.90
324;DHT22;149;51.094;17.002;2024-02-23T07:02:01;9.80;99.90
324;DHT22;149;51.094;17.002;2024-02-23T07:04:29;9.90;99.90
324;DHT22;149;51.094;17.002;2024-02-23T07:06:56;9.70;99.90
324;DHT22;149;51.094;17.002;2024-02-23T07:09:23;9.80;99.90
324;DHT22;149;51.094;17.002;2024-02-23T07:11:50;9.90;99.90
324;DHT22;149;51.094;17.002;2024-02-23T07:14:18;9.90;99.90
324;DHT22;149;51.094;17.002;2024-02-23T07:16:47;9.80;99.90
324;DHT22;149;51.094;17.002;2024-02-23T07:19:14;9.80;99.90
324;DHT22;149;51.094;17.002;2024-02-23T07:21:41;10.00;99.90
324;DHT22;149;51.094;17.002;2024-02-23T07:24:09;9.80;99.90
324;DHT22;149;51.094;17.002;2024-02-23T07:26:37;9.80;99.90
324;DHT22;149;51.094;17.002;2024-02-23T07:29:04;9.90;99.90
324;DHT22;149;51.094;17.002;2024-02-23T07:31:31;9.90;99.90
324;DHT22;149;51.094;17.002;2024-02-23T07:33:59;10.00;99.90
324;DHT22;149;51.094;17.002;2024-02-23T07:36:26;9.90;99.90
324;DHT22;149;51.094;17.002;2024-02-23T07:38:54;9.90;99.90
324;DHT22;149;51.094;17.002;2024-02-23T07:41:21;9.90;99.90
324;DHT22;149;51.094;17.002;2024-02-23T07:43:48;9.90;99.90
324;DHT22;149;51.094;17.002;2024-02-23T07:46:16;10.00;99.90
324;DHT22;149;51.094;17.002;2024-02-23T07:48:43;10.10;99.90
324;DHT22;149;51.094;17.002;2024-02-23T07:51:10;10.00;99.90
324;DHT22;149;51.094;17.002;2024-02-23T07:53:37;10.10;99.90
324;DHT22;149;51.094;17.002;2024-02-23T07:56:07;10.20;99.90
324;DHT22;149;51.094;17.002;2024-02-23T07:58:34;10.20;99.90
324;DHT22;149;51.094;17.002;2024-02-23T08:01:01;10.30;99.90
324;DHT22;149;51.094;17.002;2024-02-23T08:03:29;10.40;99.90
324;DHT22;149;51.094;17.002;2024-02-23T08:05:56;10.60;99.90
324;DHT22;149;51.094;17.002;2024-02-23T08:08:27;10.60;99.90
324;DHT22;149;51.094;17.002;2024-02-23T08:10:55;10.80;99.90
324;DHT22;149;51.094;17.002;2024-02-23T08:13:22;10.90;99.90
324;DHT22;149;51.094;17.002;2024-02-23T08:15:49;11.10;99.90
324;DHT22;149;51.094;17.002;2024-02-23T08:18:16;11.30;99.90
324;DHT22;149;51.094;17.002;2024-02-23T08:20:43;11.40;99.90
324;DHT22;149;51.094;17.002;2024-02-23T08:23:10;11.60;99.90
324;DHT22;149;51.094;17.002;2024-02-23T08:25:37;11.90;99.90
324;DHT22;149;51.094;17.002;2024-02-23T08:28:05;12.00;99.90
324;DHT22;149;51.094;17.002;2024-02-23T08:30:33;12.00;99.90
324;DHT22;149;51.094;17.002;2024-02-23T08:33:00;11.80;99.90
324;DHT22;149;51.094;17.002;2024-02-23T08:35:27;11.70;99.90
324;DHT22;149;51.094;17.002;2024-02-23T08:37:54;11.60;99.90
324;DHT22;149;51.094;17.002;2024-02-23T08:40:21;11.40;99.90
324;DHT22;149;51.094;17.002;2024-02-23T08:42:48;11.30;99.90
324;DHT22;149;51.094;17.002;2024-02-23T08:45:16;11.00;99.90
324;DHT22;149;51.094;17.002;2024-02-23T08:47:45;10.80;99.90
324;DHT22;149;51.094;17.002;2024-02-23T08:50:12;10.60;99.90
324;DHT22;149;51.094;17.002;2024-02-23T08:52:39;10.50;99.90
324;DHT22;149;51.094;17.002;2024-02-23T08:55:07;10.50;99.90
324;DHT22;149;51.094;17.002;2024-02-23T08:57:33;10.50;99.90
324;DHT22;149;51.094;17.002;2024-02-23T09:00:01;10.50;99.90
324;DHT22;149;51.094;17.002;2024-02-23T09:02:28;10.50;99.90
324;DHT22;149;51.094;17.002;2024-02-23T09:04:55;10.30;99.90
324;DHT22;149;51.094;17.002;2024-02-23T09:07:22;10.40;99.90
324;DHT22;149;51.094;17.002;2024-02-23T09:09:49;10.40;99.90
324;DHT22;149;51.094;17.002;2024-02-23T09:12:18;10.50;99.90
324;DHT22;149;51.094;17.002;2024-02-23T09:14:45;10.60;99.90
324;DHT22;149;51.094;17.002;2024-02-23T09:17:13;10.70;99.90
324;DHT22;149;51.094;17.002;2024-02-23T09:19:41;10.70;99.90
324;DHT22;149;51.094;17.002;2024-02-23T09:22:08;10.90;99.90
324;DHT22;149;51.094;17.002;2024-02-23T09:24:39;11.00;99.90
324;DHT22;149;51.094;17.002;2024-02-23T09:27:07;11.20;99.90
324;DHT22;149;51.094;17.002;2024-02-23T09:29:35;11.10;99.90
324;DHT22;149;51.094;17.002;2024-02-23T09:32:02;11.10;99.90
324;DHT22;149;51.094;17.002;2024-02-23T09:34:29;11.20;99.90
324;DHT22;149;51.094;17.002;2024-02-23T09:36:57;11.40;99.90
324;DHT22;149;51.094;17.002;2024-02-23T09:39:24;11.20;99.90
324;DHT22;149;51.094;17.002;2024-02-23T09:41:54;11.30;99.90
324;DHT22;149;51.094;17.002;2024-02-23T09:44:22;11.50;99.90
324;DHT22;149;51.094;17.002;2024-02-23T09:46:49;11.30;99.90
324;DHT22;149;51.094;17.002;2024-02-23T09:49:16;11.20;99.90
324;DHT22;149;51.094;17.002;2024-02-23T09:51:44;11.20;99.90
324;DHT22;149;51.094;17.002;2024-02-23T09:54:11;11.10;99.90
324;DHT22;149;51.094;17.002;2024-02-23T09:56:38;11.00;99.90
324;DHT22;149;51.094;17.002;2024-02-23T09:59:06;10.80;99.90
324;DHT22;149;51.094;17.002;2024-02-23T10:01:33;10.80;99.90
324;DHT22;149;51.094;17.002;2024-02-23T10:04:01;11.10;99.90
324;DHT22;149;51.094;17.002;2024-02-23T10:06:32;11.00;99.90
324;DHT22;149;51.094;17.002;2024-02-23T10:08:59;11.00;99.90
324;DHT22;149;51.094;17.002;2024-02-23T10:11:26;11.20;99.90
324;DHT22;149;51.094;17.002;2024-02-23T10:13:54;11.10;99.90
324;DHT22;149;51.094;17.002;2024-02-23T10:16:22;11.20;99.90
324;DHT22;149;51.094;17.002;2024-02-23T10:18:49;11.40;99.90
324;DHT22;149;51.094;17.002;2024-02-23T10:21:16;11.30;99.90
324;DHT22;149;51.094;17.002;2024-02-23T10:23:47;11.20;99.90
324;DHT22;149;51.094;17.002;2024-02-23T10:26:15;11.20;99.90
324;DHT22;149;51.094;17.002;2024-02-23T10:28:46;11.20;99.90
324;DHT22;149;51.094;17.002;2024-02-23T10:31:18;11.20;99.90
324;DHT22;149;51.094;17.002;2024-02-23T10:33:45;11.00;99.90
324;DHT22;149;51.094;17.002;2024-02-23T10:36:15;11.10;99.90
324;DHT22;149;51.094;17.002;2024-02-23T10:38:45;11.20;99.90
324;DHT22;149;51.094;17.002;2024-02-23T10:41:14;11.30;99.90
324;DHT22;149;51.094;17.002;2024-02-23T10:43:46;11.40;99.90
324;DHT22;149;51.094;17.002;2024-02-23T10:46:14;11.40;99.90
324;DHT22;149;51.094;17.002;2024-02-23T10:48:42;11.40;99.90
324;DHT22;149;51.094;17.002;2024-02-23T10:51:14;11.50;99.90
324;DHT22;149;51.094;17.002;2024-02-23T10:53:46;11.50;99.90
324;DHT22;149;51.094;17.002;2024-02-23T10:56:15;11.70;99.90
324;DHT22;149;51.094;17.002;2024-02-23T10:58:42;11.90;99.90
324;DHT22;149;51.094;17.002;2024-02-23T11:01:10;11.90;99.90
324;DHT22;149;51.094;17.002;2024-02-23T11:03:40;12.00;99.90
324;DHT22;149;51.094;17.002;2024-02-23T11:06:08;12.30;99.90
324;DHT22;149;51.094;17.002;2024-02-23T11:08:35;12.20;99.90
324;DHT22;149;51.094;17.002;2024-02-23T11:11:10;12.30;99.90
324;DHT22;149;51.094;17.002;2024-02-23T11:13:38;12.20;99.90
324;DHT22;149;51.094;17.002;2024-02-23T11:16:07;12.20;99.90
324;DHT22;149;51.094;17.002;2024-02-23T11:18:36;12.10;99.90
324;DHT22;149;51.094;17.002;2024-02-23T11:21:04;12.20;99.90
324;DHT22;149;51.094;17.002;2024-02-23T11:23:48;12.20;99.90
324;DHT22;149;51.094;17.002;2024-02-23T11:26:17;12.60;99.90
324;DHT22;149;51.094;17.002;2024-02-23T11:28:51;12.50;99.90
324;DHT22;149;51.094;17.002;2024-02-23T11:31:24;12.40;99.90
324;DHT22;149;51.094;17.002;2024-02-23T11:33:55;12.40;99.90
324;DHT22;149;51.094;17.002;2024-02-23T11:36:32;12.50;99.90
324;DHT22;149;51.094;17.002;2024-02-23T11:39:00;12.50;99.90
324;DHT22;149;51.094;17.002;2024-02-23T11:41:28;12.60;99.90
324;DHT22;149;51.094;17.002;2024-02-23T11:43:56;12.70;99.90
324;DHT22;149;51.094;17.002;2024-02-23T11:46:25;12.30;99.90
324;DHT22;149;51.094;17.002;2024-02-23T11:48:52;12.10;99.90
324;DHT22;149;51.094;17.002;2024-02-23T11:51:23;12.40;99.90
324;DHT22;149;51.094;17.002;2024-02-23T11:53:51;12.20;99.90
324;DHT22;149;51.094;17.002;2024-02-23T11:56:19;12.00;99.90
324;DHT22;149;51.094;17.002;2024-02-23T11:58:46;12.00;99.90
324;DHT22;149;51.094;17.002;2024-02-23T12:01:14;11.90;99.90
324;DHT22;149;51.094;17.002;2024-02-23T12:03:41;11.90;99.90
324;DHT22;149;51.094;17.002;2024-02-23T12:06:11;11.90;99.90
324;DHT22;149;51.094;17.002;2024-02-23T12:08:38;11.70;99.90
324;DHT22;149;51.094;17.002;2024-02-23T12:11:11;11.40;99.90
324;DHT22;149;51.094;17.002;2024-02-23T12:13:41;11.40;99.90
324;DHT22;149;51.094;17.002;2024-02-23T12:16:08;11.40;99.90
324;DHT22;149;51.094;17.002;2024-02-23T12:18:36;11.50;99.90
324;DHT22;149;51.094;17.002;2024-02-23T12:21:08;11.50;99.90
324;DHT22;149;51.094;17.002;2024-02-23T12:23:45;11.50;99.90
324;DHT22;149;51.094;17.002;2024-02-23T12:26:14;11.60;99.90
324;DHT22;149;51.094;17.002;2024-02-23T12:28:42;11.40;99.90
324;DHT22;149;51.094;17.002;2024-02-23T12:31:09;11.40;99.90
324;DHT22;149;51.094;17.002;2024-02-23T12:33:37;11.50;99.90
324;DHT22;149;51.094;17.002;2024-02-23T12:36:08;11.30;99.90
324;DHT22;149;51.094;17.002;2024-02-23T12:38:36;11.20;99.90
324;DHT22;149;51.094;17.002;2024-02-23T12:41:04;11.10;99.90
324;DHT22;149;51.094;17.002;2024-02-23T12:43:32;10.90;99.90
324;DHT22;149;51.094;17.002;2024-02-23T12:45:59;11.00;99.90
324;DHT22;149;51.094;17.002;2024-02-23T12:48:28;10.90;99.90
324;DHT22;149;51.094;17.002;2024-02-23T12:50:55;11.00;99.90
324;DHT22;149;51.094;17.002;2024-02-23T12:53:36;11.10;99.90
324;DHT22;149;51.094;17.002;2024-02-23T12:58:40;11.20;99.90
324;DHT22;149;51.094;17.002;2024-02-23T13:01:10;11.20;99.90
324;DHT22;149;51.094;17.002;2024-02-23T13:03:39;11.10;99.90
324;DHT22;149;51.094;17.002;2024-02-23T13:06:09;10.80;99.90
324;DHT22;149;51.094;17.002;2024-02-23T13:08:37;10.80;99.90
324;DHT22;149;51.094;17.002;2024-02-23T13:11:06;10.70;99.90
324;DHT22;149;51.094;17.002;2024-02-23T13:13:33;10.30;99.90
324;DHT22;149;51.094;17.002;2024-02-23T13:16:00;9.60;99.90
324;DHT22;149;51.094;17.002;2024-02-23T13:18:27;9.40;99.90
324;DHT22;149;51.094;17.002;2024-02-23T13:20:54;9.60;99.90
324;DHT22;149;51.094;17.002;2024-02-23T13:23:21;9.80;99.90
324;DHT22;149;51.094;17.002;2024-02-23T13:25:48;9.60;99.90
324;DHT22;149;51.094;17.002;2024-02-23T13:28:16;9.60;99.90
324;DHT22;149;51.094;17.002;2024-02-23T13:30:43;9.60;99.90
324;DHT22;149;51.094;17.002;2024-02-23T13:33:11;9.50;99.90
324;DHT22;149;51.094;17.002;2024-02-23T13:35:38;9.60;99.90
324;DHT22;149;51.094;17.002;2024-02-23T13:38:06;9.50;99.90
324;DHT22;149;51.094;17.002;2024-02-23T13:40:34;9.60;99.90
324;DHT22;149;51.094;17.002;2024-02-23T13:43:01;9.70;99.90
324;DHT22;149;51.094;17.002;2024-02-23T13:45:28;9.70;99.90
324;DHT22;149;51.094;17.002;2024-02-23T13:48:02;9.90;99.90
324;DHT22;149;51.094;17.002;2024-02-23T13:50:30;10.00;99.90
324;DHT22;149;51.094;17.002;2024-02-23T13:52:57;9.90;99.90
324;DHT22;149;51.094;17.002;2024-02-23T13:55:25;9.90;99.90
324;DHT22;149;51.094;17.002;2024-02-23T13:57:52;9.90;99.90
324;DHT22;149;51.094;17.002;2024-02-23T14:00:20;10.10;99.90
324;DHT22;149;51.094;17.002;2024-02-23T14:02:48;9.90;99.90
324;DHT22;149;51.094;17.002;2024-02-23T14:05:15;9.90;99.90
324;DHT22;149;51.094;17.002;2024-02-23T14:07:45;9.90;99.90
324;DHT22;149;51.094;17.002;2024-02-23T14:10:11;10.10;99.90
324;DHT22;149;51.094;17.002;2024-02-23T14:12:40;9.70;99.90
324;DHT22;149;51.094;17.002;2024-02-23T14:15:08;9.80;99.90
324;DHT22;149;51.094;17.002;2024-02-23T14:17:37;9.90;99.90
324;DHT22;149;51.094;17.002;2024-02-23T14:20:05;9.90;99.90
324;DHT22;149;51.094;17.002;2024-02-23T14:22:33;9.90;99.90
324;DHT22;149;51.094;17.002;2024-02-23T14:25:01;10.00;99.90
324;DHT22;149;51.094;17.002;2024-02-23T14:27:28;9.90;99.90
324;DHT22;149;51.094;17.002;2024-02-23T14:29:57;9.80;99.90
324;DHT22;149;51.094;17.002;2024-02-23T14:32:25;9.90;99.90
324;DHT22;149;51.094;17.002;2024-02-23T14:34:52;9.80;99.90
324;DHT22;149;51.094;17.002;2024-02-23T14:37:19;9.70;99.90
324;DHT22;149;51.094;17.002;2024-02-23T14:39:46;9.80;99.90
324;DHT22;149;51.094;17.002;2024-02-23T14:42:14;9.70;99.90
324;DHT22;149;51.094;17.002;2024-02-23T14:44:41;9.60;99.90
324;DHT22;149;51.094;17.002;2024-02-23T14:47:08;9.60;99.90
324;DHT22;149;51.094;17.002;2024-02-23T14:49:35;9.60;99.90
324;DHT22;149;51.094;17.002;2024-02-23T14:52:03;9.50;99.90
324;DHT22;149;51.094;17.002;2024-02-23T14:54:30;9.50;99.90
324;DHT22;149;51.094;17.002;2024-02-23T14:56:57;9.60;99.90
324;DHT22;149;51.094;17.002;2024-02-23T14:59:24;9.40;99.90
324;DHT22;149;51.094;17.002;2024-02-23T15:01:51;9.40;99.90
324;DHT22;149;51.094;17.002;2024-02-23T15:04:18;9.40;99.90
324;DHT22;149;51.094;17.002;2024-02-23T15:06:45;9.50;99.90
324;DHT22;149;51.094;17.002;2024-02-23T15:09:12;9.50;99.90
324;DHT22;149;51.094;17.002;2024-02-23T15:11:39;9.40;99.90
324;DHT22;149;51.094;17.002;2024-02-23T15:14:07;9.40;99.90
324;DHT22;149;51.094;17.002;2024-02-23T15:16:34;9.50;99.90
324;DHT22;149;51.094;17.002;2024-02-23T15:19:02;9.40;99.90
324;DHT22;149;51.094;17.002;2024-02-23T15:21:32;9.30;99.90
324;DHT22;149;51.094;17.002;2024-02-23T15:23:59;9.30;99.90
324;DHT22;149;51.094;17.002;2024-02-23T15:26:26;9.20;99.90
324;DHT22;149;51.094;17.002;2024-02-23T15:28:54;9.10;99.90
324;DHT22;149;51.094;17.002;2024-02-23T15:31:21;9.10;99.90
324;DHT22;149;51.094;17.002;2024-02-23T15:33:48;9.00;99.90
324;DHT22;149;51.094;17.002;2024-02-23T15:36:16;8.90;99.90
324;DHT22;149;51.094;17.002;2024-02-23T15:38:43;8.90;99.90
324;DHT22;149;51.094;17.002;2024-02-23T15:41:11;8.80;99.90
324;DHT22;149;51.094;17.002;2024-02-23T15:43:38;8.70;99.90
324;DHT22;149;51.094;17.002;2024-02-23T15:46:05;8.60;99.90
324;DHT22;149;51.094;17.002;2024-02-23T15:48:32;8.60;99.90
324;DHT22;149;51.094;17.002;2024-02-23T15:51:00;8.60;99.90
324;DHT22;149;51.094;17.002;2024-02-23T15:53:47;8.70;99.90
324;DHT22;149;51.094;17.002;2024-02-23T15:56:14;8.50;99.90
324;DHT22;149;51.094;17.002;2024-02-23T15:58:41;8.40;99.90
324;DHT22;149;51.094;17.002;2024-02-23T16:01:08;8.50;99.90
324;DHT22;149;51.094;17.002;2024-02-23T16:03:36;8.40;99.90
324;DHT22;149;51.094;17.002;2024-02-23T16:06:04;8.40;99.90
324;DHT22;149;51.094;17.002;2024-02-23T16:08:43;8.40;99.90
324;DHT22;149;51.094;17.002;2024-02-23T16:11:12;8.40;99.90
324;DHT22;149;51.094;17.002;2024-02-23T16:13:39;8.30;99.90
324;DHT22;149;51.094;17.002;2024-02-23T16:16:08;8.20;99.90
324;DHT22;149;51.094;17.002;2024-02-23T16:18:36;8.10;99.90
324;DHT22;149;51.094;17.002;2024-02-23T16:21:04;8.20;99.90
324;DHT22;149;51.094;17.002;2024-02-23T16:23:31;8.20;99.90
324;DHT22;149;51.094;17.002;2024-02-23T16:25:58;8.20;99.90
324;DHT22;149;51.094;17.002;2024-02-23T16:28:25;8.20;99.90
324;DHT22;149;51.094;17.002;2024-02-23T16:30:52;8.10;99.90
324;DHT22;149;51.094;17.002;2024-02-23T16:33:22;8.20;99.90
324;DHT22;149;51.094;17.002;2024-02-23T16:35:49;8.10;99.90